createdAt,value
2022-09-23T00:01:18.199Z,15.80
2022-09-23T00:03:51.805Z,14.70
2022-09-23T00:06:45.138Z,13.10
2022-09-23T00:09:17.482Z,13.50
2022-09-23T00:12:11.163Z,12.60
2022-09-23T00:14:45.879Z,14.00
2022-09-23T00:17:23.774Z,12.90
2022-09-23T00:19:55.598Z,13.30
2022-09-23T00:22:27.781Z,14.30
2022-09-23T00:24:59.607Z,13.60
2022-09-23T00:27:34.080Z,12.90
2022-09-23T00:30:09.135Z,13.10
2022-09-23T00:32:41.114Z,11.70
2022-09-23T00:35:13.182Z,13.50
2022-09-23T00:37:45.087Z,13.40
2022-09-23T00:40:17.596Z,13.10
2022-09-23T00:42:52.156Z,14.30
2022-09-23T00:45:24.185Z,12.90
2022-09-23T00:47:59.238Z,13.70
2022-09-23T00:50:37.413Z,12.90
2022-09-23T00:53:12.293Z,13.50
2022-09-23T00:55:56.784Z,11.80
2022-09-23T00:58:43.040Z,12.00
2022-09-23T01:01:15.397Z,13.00
2022-09-23T01:03:50.358Z,18.80
2022-09-23T01:06:25.380Z,13.40
2022-09-23T01:08:57.410Z,12.40
2022-09-23T01:11:42.247Z,13.60
2022-09-23T01:14:36.559Z,12.30
2022-09-23T01:17:15.999Z,12.80
2022-09-23T01:20:10.811Z,14.70
2022-09-23T01:22:50.734Z,12.20
2022-09-23T01:25:35.008Z,13.40
2022-09-23T01:28:30.383Z,12.30
2022-09-23T01:31:09.547Z,10.60
2022-09-23T01:33:58.134Z,14.90
2022-09-23T01:36:37.787Z,14.60
2022-09-23T01:39:14.146Z,13.30
2022-09-23T01:42:01.687Z,13.00
2022-09-23T01:44:44.725Z,13.20
2022-09-23T01:47:20.420Z,11.40
2022-09-23T01:49:57.226Z,12.50
2022-09-23T01:52:33.626Z,13.20
2022-09-23T01:55:12.027Z,13.40
2022-09-23T01:58:01.136Z,13.80
2022-09-23T02:00:40.763Z,19.20
2022-09-23T02:03:18.913Z,13.20
2022-09-23T02:06:01.912Z,14.10
2022-09-23T02:08:39.308Z,14.40
2022-09-23T02:11:14.021Z,13.90
2022-09-23T02:13:49.715Z,13.10
2022-09-23T02:19:02.665Z,13.50
2022-09-23T02:21:37.531Z,14.70
2022-09-23T02:24:13.994Z,14.60
2022-09-23T02:26:53.032Z,13.20
2022-09-23T02:29:31.576Z,13.80
2022-09-23T02:32:14.315Z,14.10
2022-09-23T02:34:54.627Z,13.80
2022-09-23T02:37:38.933Z,14.30
2022-09-23T02:40:22.948Z,14.00
2022-09-23T02:43:06.932Z,15.30
2022-09-23T02:45:39.219Z,16.60
2022-09-23T02:48:15.262Z,13.60
2022-09-23T02:50:56.180Z,14.90
2022-09-23T02:53:28.039Z,16.80
2022-09-23T02:55:59.732Z,12.40
2022-09-23T02:58:32.105Z,14.10
2022-09-23T03:01:12.084Z,15.50
2022-09-23T03:03:54.858Z,13.90
2022-09-23T03:06:33.477Z,14.80
2022-09-23T03:09:14.601Z,13.80
2022-09-23T03:11:51.731Z,14.40
2022-09-23T03:14:31.967Z,12.50
2022-09-23T03:17:07.466Z,12.80
2022-09-23T03:19:48.437Z,15.40
2022-09-23T03:22:34.762Z,14.20
2022-09-23T03:25:12.626Z,12.90
2022-09-23T03:27:46.545Z,14.50
2022-09-23T03:30:21.782Z,14.50
2022-09-23T03:32:57.934Z,15.30
2022-09-23T03:35:55.084Z,12.60
2022-09-23T03:38:34.199Z,13.70
2022-09-23T03:41:17.126Z,12.10
2022-09-23T03:43:49.106Z,12.50
2022-09-23T03:46:30.422Z,12.80
2022-09-23T03:49:10.598Z,14.40
2022-09-23T03:51:44.701Z,13.80
2022-09-23T03:54:30.049Z,12.80
2022-09-23T03:57:04.773Z,13.40
2022-09-23T03:59:36.953Z,13.10
2022-09-23T04:02:09.531Z,13.80
2022-09-23T04:04:41.617Z,13.70
2022-09-23T04:07:14.122Z,12.20
2022-09-23T04:09:45.901Z,13.70
2022-09-23T04:12:18.878Z,12.70
2022-09-23T04:14:50.676Z,13.40
2022-09-23T04:17:22.552Z,13.40
2022-09-23T04:19:54.480Z,13.20
2022-09-23T04:22:26.580Z,13.10
2022-09-23T04:24:58.478Z,13.10
2022-09-23T04:27:34.193Z,14.20
2022-09-23T04:30:10.563Z,12.90
2022-09-23T04:32:43.051Z,14.50
2022-09-23T04:35:15.087Z,16.60
2022-09-23T04:37:50.373Z,13.00
2022-09-23T04:40:22.263Z,12.90
2022-09-23T04:42:56.487Z,13.30
2022-09-23T04:45:28.787Z,17.20
2022-09-23T04:48:00.732Z,11.80
2022-09-23T04:50:33.980Z,16.00
2022-09-23T04:53:06.389Z,14.90
2022-09-23T04:55:38.956Z,14.80
2022-09-23T04:58:11.718Z,16.20
2022-09-23T05:00:44.755Z,16.30
2022-09-23T05:03:17.182Z,14.90
2022-09-23T05:05:48.889Z,14.90
2022-09-23T05:08:22.201Z,13.20
2022-09-23T05:10:59.386Z,12.70
2022-09-23T05:13:31.908Z,16.90
2022-09-23T05:16:06.786Z,13.80
2022-09-23T05:18:41.304Z,15.50
2022-09-23T05:21:14.558Z,14.00
2022-09-23T05:23:52.473Z,13.20
2022-09-23T05:26:25.695Z,13.40
2022-09-23T05:29:00.612Z,12.70
2022-09-23T05:31:33.096Z,13.70
2022-09-23T05:34:06.411Z,14.80
2022-09-23T05:36:39.665Z,13.20
2022-09-23T05:39:11.628Z,15.00
2022-09-23T05:41:43.637Z,13.70
2022-09-23T05:44:15.453Z,15.70
2022-09-23T05:46:47.575Z,16.10
2022-09-23T05:49:19.710Z,16.00
2022-09-23T05:51:51.605Z,17.20
2022-09-23T05:54:23.581Z,15.90
2022-09-23T05:56:55.778Z,16.60
2022-09-23T05:59:27.664Z,15.70
2022-09-23T06:01:59.986Z,15.30
2022-09-23T06:04:31.886Z,14.20
2022-09-23T06:07:03.880Z,16.50
2022-09-23T06:09:36.887Z,15.40
2022-09-23T06:12:09.778Z,15.80
2022-09-23T06:14:41.655Z,15.30
2022-09-23T06:17:13.478Z,18.70
2022-09-23T06:19:45.306Z,17.20
2022-09-23T06:22:18.738Z,16.20
2022-09-23T06:24:50.588Z,15.70
2022-09-23T06:27:22.306Z,16.60
2022-09-23T06:29:54.331Z,15.50
2022-09-23T06:32:26.155Z,17.70
2022-09-23T06:34:58.061Z,18.20
2022-09-23T06:37:30.710Z,17.20
2022-09-23T06:40:05.509Z,20.20
2022-09-23T06:42:37.261Z,17.60
2022-09-23T06:45:15.095Z,16.40
2022-09-23T06:47:47.223Z,26.60
2022-09-23T06:50:19.188Z,45.60
2022-09-23T06:52:56.181Z,27.70
2022-09-23T06:55:28.785Z,20.30
2022-09-23T06:58:01.601Z,18.50
2022-09-23T07:00:33.376Z,17.30
2022-09-23T07:03:15.774Z,18.40
2022-09-23T07:05:58.864Z,17.50
2022-09-23T07:08:33.878Z,15.40
2022-09-23T07:11:13.541Z,15.90
2022-09-23T07:13:45.984Z,19.80
2022-09-23T07:16:18.079Z,16.90
2022-09-23T07:18:50.241Z,17.90
2022-09-23T07:21:22.152Z,18.50
2022-09-23T07:23:53.843Z,18.60
2022-09-23T07:26:26.287Z,20.00
2022-09-23T07:29:05.012Z,16.50
2022-09-23T07:31:40.021Z,15.90
2022-09-23T07:34:13.279Z,16.60
2022-09-23T07:36:45.206Z,17.10
2022-09-23T07:39:17.356Z,14.40
2022-09-23T07:41:52.169Z,13.60
2022-09-23T07:44:45.324Z,15.70
2022-09-23T07:47:17.786Z,16.00
2022-09-23T07:49:49.750Z,17.20
2022-09-23T07:52:21.647Z,17.20
2022-09-23T07:54:53.792Z,16.50
2022-09-23T07:57:25.632Z,18.10
2022-09-23T08:00:09.657Z,15.60
2022-09-23T08:03:02.074Z,13.80
2022-09-23T08:05:33.941Z,13.30
2022-09-23T08:08:07.197Z,13.70
2022-09-23T08:10:39.461Z,13.50
2022-09-23T08:13:11.389Z,13.60
2022-09-23T08:15:44.361Z,13.70
2022-09-23T08:18:16.144Z,14.40
2022-09-23T08:20:48.245Z,14.90
2022-09-23T08:23:21.117Z,12.00
2022-09-23T08:26:00.204Z,12.60
2022-09-23T08:28:33.889Z,10.60
2022-09-23T08:31:06.398Z,10.50
2022-09-23T08:33:41.196Z,11.00
2022-09-23T08:36:14.144Z,13.20
2022-09-23T08:38:49.150Z,11.10
2022-09-23T08:41:29.105Z,11.40
2022-09-23T08:44:13.135Z,11.00
2022-09-23T08:46:51.108Z,10.20
2022-09-23T08:49:32.769Z,13.20
2022-09-23T08:52:15.301Z,18.80
2022-09-23T08:54:50.794Z,11.20
2022-09-23T08:57:41.470Z,12.80
2022-09-23T09:00:21.220Z,11.90
2022-09-23T09:02:55.188Z,9.40
2022-09-23T09:05:31.088Z,12.80
2022-09-23T09:08:04.927Z,12.30
2022-09-23T09:10:44.919Z,9.80
2022-09-23T09:13:29.691Z,9.40
2022-09-23T09:17:01.400Z,13.20
2022-09-23T09:19:55.825Z,7.40
2022-09-23T09:22:42.939Z,8.80
2022-09-23T09:25:36.456Z,9.70
2022-09-23T09:28:19.049Z,8.10
2022-09-23T09:30:55.052Z,7.70
2022-09-23T09:33:33.246Z,7.90
2022-09-23T09:36:20.469Z,6.90
2022-09-23T09:38:53.462Z,8.20
2022-09-23T09:41:27.648Z,7.30
2022-09-23T09:44:01.113Z,6.40
2022-09-23T09:46:57.708Z,6.10
2022-09-23T09:49:46.810Z,6.60
2022-09-23T09:52:29.815Z,7.10
2022-09-23T09:55:25.373Z,8.00
2022-09-23T09:58:01.961Z,6.90
2022-09-23T10:00:43.401Z,7.00
2022-09-23T10:03:32.485Z,6.80
2022-09-23T10:06:17.415Z,7.10
2022-09-23T10:09:14.824Z,7.50
2022-09-23T10:12:13.203Z,6.70
2022-09-23T10:14:45.549Z,8.10
2022-09-23T10:17:24.227Z,6.30
2022-09-23T10:20:18.373Z,5.90
2022-09-23T10:22:50.592Z,6.60
2022-09-23T10:25:26.692Z,6.00
2022-09-23T10:27:58.633Z,6.30
2022-09-23T10:30:31.032Z,5.70
2022-09-23T10:33:03.658Z,7.80
2022-09-23T10:35:36.120Z,5.60
2022-09-23T10:38:12.680Z,7.20
2022-09-23T10:41:06.852Z,7.00
2022-09-23T10:44:07.977Z,8.70
2022-09-23T10:46:42.361Z,8.20
2022-09-23T10:49:39.566Z,5.40
2022-09-23T10:52:39.196Z,6.60
2022-09-23T10:55:27.814Z,4.70
2022-09-23T10:58:21.585Z,4.60
2022-09-23T11:01:03.883Z,8.60
2022-09-23T11:03:54.309Z,5.30
2022-09-23T11:06:33.743Z,3.80
2022-09-23T11:09:28.161Z,3.10
2022-09-23T11:12:14.982Z,3.10
2022-09-23T11:15:03.674Z,2.50
2022-09-23T11:17:52.083Z,1.90
2022-09-23T11:20:36.698Z,3.20
2022-09-23T11:23:35.087Z,3.00
2022-09-23T11:26:19.946Z,5.20
2022-09-23T11:29:12.394Z,5.70
2022-09-23T11:31:57.356Z,4.60
2022-09-23T11:34:55.103Z,4.00
2022-09-23T11:37:31.045Z,2.80
2022-09-23T11:40:06.047Z,3.10
2022-09-23T11:42:55.142Z,2.50
2022-09-23T11:45:32.171Z,3.60
2022-09-23T11:48:11.903Z,3.60
2022-09-23T11:50:50.129Z,4.60
2022-09-23T11:53:38.631Z,3.70
2022-09-23T11:56:32.134Z,3.80
2022-09-23T11:59:11.812Z,2.40
2022-09-23T12:01:49.854Z,2.60
2022-09-23T12:04:31.324Z,3.70
2022-09-23T12:07:12.343Z,4.30
2022-09-23T12:09:58.534Z,2.40
2022-09-23T12:12:42.289Z,3.00
2022-09-23T12:15:32.120Z,2.80
2022-09-23T12:18:22.328Z,3.00
2022-09-23T12:21:27.167Z,3.20
2022-09-23T12:24:49.009Z,2.80
2022-09-23T12:27:31.990Z,4.30
2022-09-23T12:30:35.202Z,4.90
2022-09-23T12:33:30.033Z,4.20
2022-09-23T12:36:30.483Z,3.30
2022-09-23T12:39:30.004Z,4.40
2022-09-23T12:42:06.418Z,3.70
2022-09-23T12:45:20.392Z,4.00
2022-09-23T12:48:43.096Z,4.40
2022-09-23T12:51:37.440Z,5.40
2022-09-23T12:54:30.110Z,3.70
2022-09-23T12:57:22.159Z,3.20
2022-09-23T12:59:59.446Z,3.10
2022-09-23T13:03:16.319Z,4.60
2022-09-23T13:06:23.766Z,4.90
2022-09-23T13:09:14.442Z,3.00
2022-09-23T13:11:50.435Z,3.30
2022-09-23T13:14:27.812Z,4.00
2022-09-23T13:17:02.402Z,4.10
2022-09-23T13:19:58.491Z,6.50
2022-09-23T13:22:58.289Z,5.80
2022-09-23T13:25:52.295Z,7.40
2022-09-23T13:28:57.948Z,7.60
2022-09-23T13:31:46.038Z,5.50
2022-09-23T13:34:33.937Z,5.30
2022-09-23T13:37:30.652Z,5.50
2022-09-23T13:40:21.110Z,4.40
2022-09-23T13:42:58.589Z,5.20
2022-09-23T13:45:51.087Z,4.80
2022-09-23T13:48:45.404Z,4.20
2022-09-23T13:51:30.476Z,12.30
2022-09-23T13:54:29.874Z,5.50
2022-09-23T13:57:27.838Z,4.60
2022-09-23T14:00:23.375Z,6.00
2022-09-23T14:03:28.650Z,5.90
2022-09-23T14:06:07.209Z,5.40
2022-09-23T14:08:51.485Z,7.20
2022-09-23T14:11:44.647Z,5.80
2022-09-23T14:14:39.565Z,8.30
2022-09-23T14:17:25.089Z,9.70
2022-09-23T14:20:14.102Z,8.40
2022-09-23T14:22:47.257Z,5.70
2022-09-23T14:25:40.235Z,4.80
2022-09-23T14:28:27.483Z,5.80
2022-09-23T14:31:03.345Z,4.60
2022-09-23T14:33:55.823Z,5.50
2022-09-23T14:36:56.674Z,4.80
2022-09-23T14:39:41.173Z,5.70
2022-09-23T14:42:26.171Z,5.60
2022-09-23T14:45:20.944Z,5.20
2022-09-23T14:48:18.636Z,5.50
2022-09-23T14:51:03.509Z,5.70
2022-09-23T14:53:55.546Z,4.80
2022-09-23T14:56:45.335Z,5.40
2022-09-23T14:59:38.192Z,6.30
2022-09-23T15:02:36.119Z,6.50
2022-09-23T15:05:42.593Z,5.10
2022-09-23T15:08:37.002Z,6.00
2022-09-23T15:11:22.512Z,5.60
2022-09-23T15:14:36.618Z,8.00
2022-09-23T15:17:09.120Z,11.70
2022-09-23T15:20:05.078Z,10.50
2022-09-23T15:22:49.799Z,12.20
2022-09-23T15:25:43.880Z,8.70
2022-09-23T15:28:35.883Z,8.60
2022-09-23T15:31:27.923Z,6.40
2022-09-23T15:34:11.293Z,7.30
2022-09-23T15:37:03.650Z,7.20
2022-09-23T15:39:55.649Z,8.10
2022-09-23T15:42:38.011Z,7.20
2022-09-23T15:45:14.598Z,7.30
2022-09-23T15:48:12.656Z,6.30
2022-09-23T15:51:08.185Z,7.10
2022-09-23T15:54:00.170Z,6.90
2022-09-23T15:56:52.204Z,6.90
2022-09-23T15:59:27.149Z,7.10
2022-09-23T16:02:24.794Z,7.90
2022-09-23T16:05:23.797Z,8.80
2022-09-23T16:08:09.143Z,9.30
2022-09-23T16:10:54.999Z,8.80
2022-09-23T16:13:47.155Z,9.10
2022-09-23T16:16:39.295Z,13.20
2022-09-23T16:19:14.805Z,14.30
2022-09-23T16:22:07.198Z,14.30
2022-09-23T16:24:38.931Z,22.90
2022-09-23T16:27:31.764Z,20.20
2022-09-23T16:30:14.550Z,23.30
2022-09-23T16:32:51.751Z,32.90
2022-09-23T16:35:43.817Z,30.10
2022-09-23T16:38:36.937Z,26.40
2022-09-23T16:41:31.550Z,27.10
2022-09-23T16:44:05.512Z,26.00
2022-09-23T16:46:57.815Z,21.50
2022-09-23T16:49:49.765Z,21.20
2022-09-23T16:52:42.047Z,25.80
2022-09-23T16:55:34.195Z,25.60
2022-09-23T16:58:26.254Z,26.80
2022-09-23T17:01:39.376Z,37.70
2022-09-23T17:04:12.177Z,51.60
2022-09-23T17:07:04.177Z,64.70
2022-09-23T17:09:56.222Z,37.10
2022-09-23T17:12:48.219Z,31.80
2022-09-23T17:15:40.790Z,37.20
2022-09-23T17:18:23.337Z,27.50
2022-09-23T17:21:15.479Z,23.30
2022-09-23T17:24:08.128Z,27.60
2022-09-23T17:26:56.812Z,24.70
2022-09-23T17:29:48.759Z,30.00
2022-09-23T17:32:40.923Z,26.90
2022-09-23T17:35:32.996Z,28.60
2022-09-23T17:38:07.466Z,28.60
2022-09-23T17:41:01.324Z,33.20
2022-09-23T17:44:00.916Z,34.60
2022-09-23T17:46:53.016Z,34.60
2022-09-23T17:49:47.657Z,35.60
2022-09-23T17:52:29.595Z,43.80
2022-09-23T17:55:21.695Z,48.20
2022-09-23T17:58:13.779Z,45.00
2022-09-23T18:01:06.420Z,52.00
2022-09-23T18:03:59.568Z,52.00
2022-09-23T18:06:52.073Z,45.70
2022-09-23T18:09:44.216Z,49.60
2022-09-23T18:12:37.409Z,51.70
2022-09-23T18:15:29.755Z,52.60
2022-09-23T18:18:22.937Z,49.00
2022-09-23T18:21:15.032Z,52.40
2022-09-23T18:27:20.663Z,55.50
2022-09-23T18:30:14.330Z,57.00
2022-09-23T18:32:56.237Z,52.10
2022-09-23T18:35:48.654Z,62.10
2022-09-23T18:38:40.882Z,55.10
2022-09-23T18:41:34.213Z,52.30
2022-09-23T18:44:26.932Z,54.00
2022-09-23T18:47:32.962Z,51.90
2022-09-23T18:50:32.726Z,51.80
2022-09-23T18:53:25.075Z,57.50
2022-09-23T18:56:19.635Z,59.10
2022-09-23T18:59:18.314Z,59.20
2022-09-23T19:02:02.993Z,63.60
2022-09-23T19:04:55.558Z,59.80
2022-09-23T19:07:37.649Z,61.40
2022-09-23T19:10:29.798Z,59.10
2022-09-23T19:13:24.688Z,55.30
2022-09-23T19:16:13.464Z,55.80
2022-09-23T19:19:06.838Z,55.50
2022-09-23T19:21:59.572Z,52.90
2022-09-23T19:24:51.760Z,54.90
2022-09-23T19:27:44.062Z,54.70
2022-09-23T19:30:37.331Z,54.70
2022-09-23T19:33:29.306Z,55.80
2022-09-23T19:36:26.936Z,53.10
2022-09-23T19:39:22.591Z,48.10
2022-09-23T19:42:14.731Z,52.50
2022-09-23T19:45:08.044Z,46.70
2022-09-23T19:48:00.929Z,45.80
2022-09-23T19:50:49.763Z,51.30
2022-09-23T19:53:45.782Z,78.50
2022-09-23T19:56:38.933Z,68.70
2022-09-23T19:59:31.355Z,62.50
2022-09-23T20:02:23.570Z,54.20
2022-09-23T20:05:20.267Z,64.90
2022-09-23T20:08:11.168Z,64.20
2022-09-23T20:11:11.656Z,64.10
2022-09-23T20:14:06.396Z,58.80
2022-09-23T20:17:00.156Z,58.50
2022-09-23T20:19:52.138Z,63.20
2022-09-23T20:22:43.162Z,60.10
2022-09-23T20:25:49.255Z,60.10
2022-09-23T20:28:41.356Z,59.90
2022-09-23T20:31:35.251Z,67.00
2022-09-23T20:34:29.795Z,62.70
2022-09-23T20:37:23.550Z,63.60
2022-09-23T20:40:16.256Z,66.20
2022-09-23T20:43:08.346Z,56.70
2022-09-23T20:46:01.850Z,58.80
2022-09-23T20:48:56.774Z,59.00
2022-09-23T20:51:50.125Z,58.20
2022-09-23T20:54:35.127Z,61.30
2022-09-23T20:57:28.122Z,63.30
2022-09-23T21:00:20.484Z,57.40
2022-09-23T21:03:12.447Z,56.80
2022-09-23T21:06:05.781Z,59.80
2022-09-23T21:08:58.104Z,59.60
2022-09-23T21:11:50.101Z,58.20
2022-09-23T21:14:42.278Z,60.50
2022-09-23T21:17:34.641Z,55.50
2022-09-23T21:20:26.708Z,52.00
2022-09-23T21:23:21.787Z,47.90
2022-09-23T21:26:17.578Z,54.00
2022-09-23T21:29:09.971Z,50.90
2022-09-23T21:32:02.113Z,48.30
2022-09-23T21:34:54.248Z,48.00
2022-09-23T21:37:46.642Z,45.50
2022-09-23T21:40:56.141Z,48.50
2022-09-23T21:43:49.682Z,44.70
2022-09-23T21:46:41.885Z,49.30
2022-09-23T21:49:34.288Z,46.40
2022-09-23T21:52:07.305Z,41.80
2022-09-23T21:54:59.400Z,41.20
2022-09-23T21:57:51.663Z,40.80
2022-09-23T22:00:44.045Z,37.70
2022-09-23T22:03:36.653Z,40.70
2022-09-23T22:06:13.964Z,39.50
2022-09-23T22:09:09.295Z,39.20
2022-09-23T22:12:09.948Z,38.70
2022-09-23T22:15:02.061Z,38.00
2022-09-23T22:17:54.748Z,37.20
2022-09-23T22:20:47.906Z,38.40
2022-09-23T22:23:29.748Z,38.80
2022-09-23T22:26:21.925Z,36.80
2022-09-23T22:29:33.807Z,35.50
2022-09-23T22:32:54.387Z,35.30
2022-09-23T22:35:48.296Z,33.10
2022-09-23T22:38:43.934Z,34.10
2022-09-23T22:41:28.798Z,35.70
2022-09-23T22:44:21.356Z,32.90
2022-09-23T22:47:03.715Z,35.50
2022-09-23T22:49:55.754Z,34.00
2022-09-23T22:52:49.258Z,33.30
2022-09-23T22:55:43.181Z,31.80
2022-09-23T22:58:35.154Z,34.10
2022-09-23T23:01:27.404Z,31.60
2022-09-23T23:04:22.371Z,31.20
2022-09-23T23:07:16.586Z,31.10
2022-09-23T23:10:10.524Z,32.70
2022-09-23T23:13:03.973Z,33.80
2022-09-23T23:15:55.933Z,31.50
2022-09-23T23:18:48.087Z,32.60
2022-09-23T23:21:43.210Z,34.20
2022-09-23T23:24:28.644Z,31.10
2022-09-23T23:27:20.794Z,26.90
2022-09-23T23:30:08.456Z,28.10
2022-09-23T23:33:00.482Z,25.40
2022-09-23T23:35:54.060Z,25.80
2022-09-23T23:38:49.950Z,25.00
2022-09-23T23:41:42.843Z,25.10
2022-09-23T23:44:34.982Z,21.40
2022-09-23T23:47:27.571Z,23.00
2022-09-23T23:50:19.577Z,22.30
2022-09-23T23:53:11.997Z,22.50
2022-09-23T23:56:07.764Z,21.10
2022-09-23T23:59:02.530Z,21.90
